createdAt,value
2023-04-24T00:00:27.861Z,99.90
2023-04-24T00:02:58.889Z,99.90
2023-04-24T00:05:27.349Z,99.90
2023-04-24T00:07:56.223Z,99.90
2023-04-24T00:10:24.309Z,99.90
2023-04-24T00:12:52.361Z,99.90
2023-04-24T00:15:20.322Z,99.90
2023-04-24T00:17:48.678Z,99.90
2023-04-24T00:20:18.155Z,99.90
2023-04-24T00:22:46.147Z,99.90
2023-04-24T00:25:14.112Z,99.90
2023-04-24T00:27:42.303Z,99.90
2023-04-24T00:30:11.137Z,99.90
2023-04-24T00:32:39.218Z,99.90
2023-04-24T00:35:08.279Z,99.90
2023-04-24T00:37:37.815Z,99.90
2023-04-24T00:40:07.339Z,99.90
2023-04-24T00:42:35.919Z,99.90
2023-04-24T00:45:05.252Z,99.90
2023-04-24T00:47:34.736Z,99.90
2023-04-24T00:50:04.107Z,99.90
2023-04-24T00:52:33.170Z,99.90
2023-04-24T00:55:02.542Z,99.90
2023-04-24T00:57:30.970Z,99.90
2023-04-24T00:59:59.315Z,99.90
2023-04-24T01:02:27.976Z,99.90
2023-04-24T01:04:56.213Z,99.90
2023-04-24T01:07:24.478Z,99.90
2023-04-24T01:09:53.216Z,99.90
2023-04-24T01:12:22.611Z,99.90
2023-04-24T01:14:51.209Z,99.90
2023-04-24T01:17:19.264Z,99.90
2023-04-24T01:19:47.227Z,99.90
2023-04-24T01:22:17.312Z,99.90
2023-04-24T01:24:45.415Z,99.90
2023-04-24T01:27:13.507Z,99.90
2023-04-24T01:29:42.046Z,99.90
2023-04-24T01:32:10.713Z,99.90
2023-04-24T01:34:39.363Z,99.90
2023-04-24T01:37:07.353Z,99.90
2023-04-24T01:39:36.985Z,99.90
2023-04-24T01:42:05.119Z,99.90
2023-04-24T01:44:33.475Z,99.90
2023-04-24T01:47:03.047Z,99.90
2023-04-24T01:49:31.396Z,99.90
2023-04-24T01:51:59.345Z,99.90
2023-04-24T01:54:27.420Z,99.90
2023-04-24T01:56:56.914Z,99.90
2023-04-24T01:59:27.323Z,99.90
2023-04-24T02:01:55.327Z,99.90
2023-04-24T02:04:23.475Z,99.90
2023-04-24T02:06:51.735Z,99.90
2023-04-24T02:09:19.715Z,99.90
2023-04-24T02:11:47.658Z,99.90
2023-04-24T02:14:16.993Z,99.90
2023-04-24T02:16:45.171Z,99.90
2023-04-24T02:19:13.270Z,99.90
2023-04-24T02:21:41.247Z,99.90
2023-04-24T02:24:09.197Z,99.90
2023-04-24T02:26:37.190Z,99.90
2023-04-24T02:29:05.163Z,99.90
2023-04-24T02:31:34.899Z,99.90
2023-04-24T02:34:02.914Z,99.30
2023-04-24T02:36:31.319Z,99.00
2023-04-24T02:38:59.316Z,98.80
2023-04-24T02:41:32.264Z,98.60
2023-04-24T02:44:00.406Z,97.90
2023-04-24T02:46:28.483Z,97.80
2023-04-24T02:48:57.896Z,97.50
2023-04-24T02:51:26.148Z,97.70
2023-04-24T02:53:54.089Z,97.40
2023-04-24T02:56:22.050Z,96.80
2023-04-24T02:58:50.015Z,96.50
2023-04-24T03:01:18.941Z,96.30
2023-04-24T03:03:47.073Z,97.00
2023-04-24T03:06:16.631Z,96.90
2023-04-24T03:08:44.602Z,96.30
2023-04-24T03:11:12.515Z,96.80
2023-04-24T03:13:40.737Z,96.70
2023-04-24T03:16:08.717Z,96.60
2023-04-24T03:18:36.716Z,96.50
2023-04-24T03:21:05.035Z,96.00
2023-04-24T03:23:34.358Z,96.30
2023-04-24T03:26:03.358Z,96.70
2023-04-24T03:28:31.333Z,97.20
2023-04-24T03:30:59.286Z,98.70
2023-04-24T03:33:27.241Z,99.30
2023-04-24T03:35:55.173Z,99.30
2023-04-24T03:38:23.140Z,99.40
2023-04-24T03:40:52.454Z,99.50
2023-04-24T03:43:20.414Z,99.00
2023-04-24T03:45:48.467Z,98.50
2023-04-24T03:48:16.490Z,98.90
2023-04-24T03:50:44.472Z,98.80
2023-04-24T03:53:12.439Z,98.80
2023-04-24T03:55:40.439Z,98.60
2023-04-24T03:58:09.749Z,98.60
2023-04-24T04:00:38.553Z,98.80
2023-04-24T04:03:06.856Z,98.40
2023-04-24T04:05:35.081Z,98.10
2023-04-24T04:08:03.110Z,98.30
2023-04-24T04:10:31.090Z,98.30
2023-04-24T04:12:59.148Z,97.70
2023-04-24T04:15:28.511Z,97.40
2023-04-24T04:17:56.576Z,96.20
2023-04-24T04:20:24.792Z,95.60
2023-04-24T04:22:52.721Z,95.30
2023-04-24T04:25:20.898Z,95.80
2023-04-24T04:27:49.589Z,95.10
2023-04-24T04:30:17.534Z,95.10
2023-04-24T04:32:46.896Z,94.50
2023-04-24T04:35:15.006Z,94.30
2023-04-24T04:37:42.951Z,94.00
2023-04-24T04:40:12.870Z,93.40
2023-04-24T04:42:41.709Z,93.60
2023-04-24T04:45:12.031Z,92.60
2023-04-24T04:47:40.560Z,91.10
2023-04-24T04:50:11.599Z,91.60
2023-04-24T04:52:39.621Z,91.20
2023-04-24T04:55:08.688Z,90.50
2023-04-24T04:57:36.760Z,89.90
2023-04-24T05:00:05.805Z,88.10
2023-04-24T05:02:33.889Z,84.70
2023-04-24T05:05:02.116Z,85.80
2023-04-24T05:07:31.623Z,83.20
2023-04-24T05:09:59.594Z,84.00
2023-04-24T05:12:27.964Z,82.10
2023-04-24T05:14:56.181Z,80.00
2023-04-24T05:17:24.278Z,77.80
2023-04-24T05:19:52.491Z,74.80
2023-04-24T05:22:21.992Z,73.50
2023-04-24T05:24:51.351Z,73.90
2023-04-24T05:27:19.327Z,71.80
2023-04-24T05:29:47.289Z,72.70
2023-04-24T05:32:15.309Z,70.80
2023-04-24T05:34:43.233Z,70.00
2023-04-24T05:37:11.224Z,70.10
2023-04-24T05:39:39.357Z,69.80
2023-04-24T05:42:08.966Z,70.20
2023-04-24T05:44:36.938Z,71.00
2023-04-24T05:47:05.724Z,67.70
2023-04-24T05:49:33.750Z,66.10
2023-04-24T05:52:01.728Z,65.70
2023-04-24T05:54:29.738Z,64.60
2023-04-24T05:56:57.730Z,63.90
2023-04-24T05:59:27.456Z,62.20
2023-04-24T06:01:55.422Z,62.70
2023-04-24T06:04:23.822Z,62.20
2023-04-24T06:06:56.748Z,61.40
2023-04-24T06:09:24.908Z,61.30
2023-04-24T06:11:53.957Z,61.30
2023-04-24T06:14:22.253Z,61.30
2023-04-24T06:16:51.988Z,61.40
2023-04-24T06:19:20.108Z,60.90
2023-04-24T06:21:48.252Z,60.80
2023-04-24T06:24:17.023Z,59.50
2023-04-24T06:26:45.058Z,60.30
2023-04-24T06:29:12.990Z,59.90
2023-04-24T06:31:41.224Z,59.70
2023-04-24T06:34:10.623Z,60.10
2023-04-24T06:36:38.780Z,60.00
2023-04-24T06:39:06.988Z,59.60
2023-04-24T06:41:34.992Z,59.40
2023-04-24T06:44:03.436Z,59.00
2023-04-24T06:46:31.666Z,59.10
2023-04-24T06:48:59.638Z,59.10
2023-04-24T06:51:29.807Z,58.70
2023-04-24T06:53:57.980Z,58.40
2023-04-24T06:56:26.231Z,58.70
2023-04-24T06:58:54.886Z,58.20
2023-04-24T07:01:23.018Z,58.00
2023-04-24T07:03:51.182Z,57.60
2023-04-24T07:06:22.433Z,57.50
2023-04-24T07:08:51.968Z,56.50
2023-04-24T07:11:19.959Z,56.50
2023-04-24T07:13:47.928Z,56.10
2023-04-24T07:16:15.954Z,55.60
2023-04-24T07:18:44.489Z,54.70
2023-04-24T07:21:12.763Z,55.00
2023-04-24T07:23:42.294Z,53.80
2023-04-24T07:26:11.734Z,53.70
2023-04-24T07:28:39.720Z,53.50
2023-04-24T07:31:07.812Z,53.40
2023-04-24T07:33:37.380Z,52.80
2023-04-24T07:36:06.217Z,53.20
2023-04-24T07:38:36.436Z,52.40
2023-04-24T07:41:07.263Z,52.20
2023-04-24T07:43:36.870Z,52.30
2023-04-24T07:46:06.086Z,52.30
2023-04-24T07:48:35.753Z,51.30
2023-04-24T07:51:03.921Z,51.50
2023-04-24T07:53:31.876Z,52.00
2023-04-24T07:56:00.088Z,51.80
2023-04-24T07:58:28.277Z,50.90
2023-04-24T08:00:58.423Z,51.30
2023-04-24T08:03:26.981Z,50.80
2023-04-24T08:05:55.462Z,51.40
2023-04-24T08:08:25.058Z,49.90
2023-04-24T08:10:53.817Z,49.40
2023-04-24T08:13:21.941Z,48.90
2023-04-24T08:15:50.115Z,49.30
2023-04-24T08:18:19.879Z,49.80
2023-04-24T08:20:47.934Z,48.00
2023-04-24T08:23:16.113Z,48.20
2023-04-24T08:25:44.141Z,46.70
2023-04-24T08:28:12.399Z,47.40
2023-04-24T08:30:40.670Z,46.90
2023-04-24T08:33:08.983Z,46.50
2023-04-24T08:35:38.667Z,45.00
2023-04-24T08:38:06.842Z,44.20
2023-04-24T08:40:36.864Z,40.90
2023-04-24T08:43:06.061Z,38.10
2023-04-24T08:45:35.365Z,36.40
2023-04-24T08:48:04.562Z,32.10
2023-04-24T08:50:34.688Z,31.20
2023-04-24T08:53:05.134Z,30.00
2023-04-24T08:55:34.746Z,29.80
2023-04-24T08:58:04.298Z,29.30
2023-04-24T09:00:32.445Z,28.70
2023-04-24T09:03:02.669Z,29.10
2023-04-24T09:05:31.259Z,29.80
2023-04-24T09:08:00.154Z,30.00
2023-04-24T09:10:31.611Z,29.10
2023-04-24T09:13:02.907Z,28.00
2023-04-24T09:15:31.822Z,26.00
2023-04-24T09:18:00.212Z,25.70
2023-04-24T09:20:28.252Z,24.70
2023-04-24T09:22:57.111Z,26.20
2023-04-24T09:25:27.475Z,26.10
2023-04-24T09:27:56.848Z,25.70
2023-04-24T09:30:25.077Z,24.20
2023-04-24T09:33:12.262Z,24.80
2023-04-24T09:35:44.015Z,26.00
2023-04-24T09:38:12.365Z,27.60
2023-04-24T09:40:42.366Z,29.10
2023-04-24T09:43:13.579Z,31.20
2023-04-24T09:45:42.381Z,32.20
2023-04-24T09:48:12.235Z,34.20
2023-04-24T09:50:40.455Z,34.60
2023-04-24T09:53:09.941Z,35.40
2023-04-24T09:55:42.030Z,36.60
2023-04-24T09:58:10.557Z,37.60
2023-04-24T10:00:40.047Z,37.50
2023-04-24T10:03:09.296Z,37.20
2023-04-24T10:05:39.790Z,37.00
2023-04-24T10:08:09.754Z,36.10
2023-04-24T10:10:45.044Z,35.50
2023-04-24T10:13:15.328Z,34.80
2023-04-24T10:15:45.366Z,34.40
2023-04-24T10:18:13.802Z,33.90
2023-04-24T10:20:42.562Z,32.70
2023-04-24T10:23:10.612Z,33.60
2023-04-24T10:25:38.858Z,34.80
2023-04-24T10:28:09.756Z,35.70
2023-04-24T10:30:39.117Z,36.40
2023-04-24T10:33:10.555Z,36.70
2023-04-24T10:35:43.692Z,36.50
2023-04-24T10:38:15.127Z,36.10
2023-04-24T10:40:44.707Z,36.30
2023-04-24T10:43:12.952Z,36.30
2023-04-24T10:45:41.280Z,36.80
2023-04-24T10:48:14.744Z,37.40
2023-04-24T10:50:48.012Z,37.20
2023-04-24T10:53:19.189Z,37.90
2023-04-24T10:55:49.532Z,37.70
2023-04-24T10:58:18.739Z,38.20
2023-04-24T11:00:57.120Z,39.50
2023-04-24T11:03:28.979Z,41.30
2023-04-24T11:06:02.882Z,42.40
2023-04-24T11:08:39.390Z,43.60
2023-04-24T11:11:12.230Z,43.90
2023-04-24T11:14:07.583Z,44.70
2023-04-24T11:16:39.367Z,45.50
2023-04-24T11:19:10.903Z,46.20
2023-04-24T11:21:43.873Z,46.00
2023-04-24T11:24:29.054Z,46.00
2023-04-24T11:26:58.993Z,46.70
2023-04-24T11:29:41.928Z,47.60
2023-04-24T11:32:27.638Z,48.30
2023-04-24T11:34:58.296Z,48.80
2023-04-24T11:37:28.661Z,49.10
2023-04-24T11:39:59.140Z,49.60
2023-04-24T11:42:27.793Z,49.50
2023-04-24T11:44:57.730Z,49.60
2023-04-24T11:47:31.234Z,49.50
2023-04-24T11:50:01.956Z,49.90
2023-04-24T11:52:30.915Z,49.40
2023-04-24T11:54:59.431Z,49.40
2023-04-24T11:57:30.003Z,49.20
2023-04-24T11:59:58.050Z,49.00
2023-04-24T12:02:27.057Z,48.10
2023-04-24T12:04:55.771Z,47.80
2023-04-24T12:07:26.497Z,47.10
2023-04-24T12:09:59.479Z,47.00
2023-04-24T12:12:29.260Z,47.10
2023-04-24T12:14:59.607Z,47.30
2023-04-24T12:17:29.724Z,48.40
2023-04-24T12:20:00.368Z,49.40
2023-04-24T12:22:29.807Z,50.10
2023-04-24T12:25:02.506Z,50.70
2023-04-24T12:27:35.065Z,51.00
2023-04-24T12:30:04.880Z,51.60
2023-04-24T12:32:33.217Z,51.80
2023-04-24T12:35:01.238Z,51.60
2023-04-24T12:37:37.448Z,50.80
2023-04-24T12:40:08.840Z,50.50
2023-04-24T12:42:38.197Z,51.00
2023-04-24T12:45:09.128Z,51.00
2023-04-24T12:47:37.755Z,51.40
2023-04-24T12:50:07.074Z,52.90
2023-04-24T12:52:36.683Z,52.60
2023-04-24T12:55:05.888Z,53.00
2023-04-24T12:57:33.884Z,53.60
2023-04-24T13:00:01.836Z,53.80
2023-04-24T13:02:32.608Z,53.90
2023-04-24T13:05:01.248Z,54.20
2023-04-24T13:07:30.067Z,54.80
2023-04-24T13:09:59.639Z,55.10
2023-04-24T13:12:27.813Z,55.20
2023-04-24T13:14:56.803Z,55.10
2023-04-24T13:17:24.843Z,55.10
2023-04-24T13:19:53.992Z,54.90
2023-04-24T13:22:23.119Z,55.10
2023-04-24T13:24:51.103Z,54.70
2023-04-24T13:27:21.144Z,55.30
2023-04-24T13:29:49.124Z,55.70
2023-04-24T13:32:17.346Z,55.80
2023-04-24T13:34:45.681Z,56.30
2023-04-24T13:37:13.718Z,56.90
2023-04-24T13:39:42.442Z,57.40
2023-04-24T13:42:11.813Z,57.80
2023-04-24T13:44:41.417Z,58.20
2023-04-24T13:47:09.412Z,58.70
2023-04-24T13:49:37.469Z,59.10
2023-04-24T13:52:05.518Z,59.90
2023-04-24T13:54:33.812Z,60.40
2023-04-24T13:57:03.948Z,61.00
2023-04-24T13:59:32.035Z,61.10
2023-04-24T14:02:01.363Z,62.10
2023-04-24T14:04:29.444Z,62.20
2023-04-24T14:06:57.741Z,62.70
2023-04-24T14:09:25.745Z,63.90
2023-04-24T14:11:54.201Z,64.80
2023-04-24T14:14:22.165Z,65.40
2023-04-24T14:16:50.203Z,66.70
2023-04-24T14:19:19.541Z,67.60
2023-04-24T14:21:47.494Z,69.00
2023-04-24T14:24:15.899Z,69.70
2023-04-24T14:26:43.892Z,70.30
2023-04-24T14:29:15.060Z,70.50
2023-04-24T14:31:43.893Z,70.70
2023-04-24T14:34:11.930Z,70.70
2023-04-24T14:36:41.556Z,71.10
2023-04-24T14:39:09.558Z,71.10
2023-04-24T14:41:38.258Z,71.20
2023-04-24T14:44:06.653Z,71.00
2023-04-24T14:46:34.912Z,71.40
2023-04-24T14:49:03.122Z,70.70
2023-04-24T14:51:31.438Z,70.30
2023-04-24T14:54:00.789Z,70.70
2023-04-24T14:56:28.844Z,70.10
2023-04-24T14:58:57.351Z,70.20
2023-04-24T15:01:26.000Z,70.10
2023-04-24T15:03:54.314Z,69.80
2023-04-24T15:06:22.641Z,69.70
2023-04-24T15:08:51.052Z,70.10
2023-04-24T15:11:20.945Z,70.00
2023-04-24T15:13:49.153Z,70.20
2023-04-24T15:16:17.578Z,70.80
2023-04-24T15:18:45.991Z,70.60
2023-04-24T15:21:14.251Z,71.00
2023-04-24T15:23:42.381Z,71.40
2023-04-24T15:26:10.444Z,71.90
2023-04-24T15:28:39.812Z,72.00
2023-04-24T15:31:07.842Z,71.90
2023-04-24T15:33:35.824Z,72.20
2023-04-24T15:36:03.769Z,72.10
2023-04-24T15:38:31.763Z,72.40
2023-04-24T15:40:59.817Z,73.20
2023-04-24T15:43:27.784Z,74.70
2023-04-24T15:45:57.672Z,74.60
2023-04-24T15:48:25.776Z,74.80
2023-04-24T15:50:53.809Z,74.70
2023-04-24T15:53:22.975Z,74.90
2023-04-24T15:55:51.494Z,74.70
2023-04-24T15:58:21.497Z,75.00
2023-04-24T16:00:50.032Z,74.90
2023-04-24T16:03:19.505Z,74.50
2023-04-24T16:05:47.643Z,73.60
2023-04-24T16:08:15.762Z,74.20
2023-04-24T16:10:44.246Z,73.90
2023-04-24T16:13:12.290Z,73.80
2023-04-24T16:15:41.326Z,74.10
2023-04-24T16:18:09.411Z,74.80
2023-04-24T16:20:38.779Z,75.30
2023-04-24T16:23:06.777Z,75.60
2023-04-24T16:25:34.791Z,76.30
2023-04-24T16:28:03.214Z,76.90
2023-04-24T16:30:31.772Z,77.00
2023-04-24T16:32:59.789Z,77.40
2023-04-24T16:35:27.874Z,77.20
2023-04-24T16:37:57.276Z,77.50
2023-04-24T16:40:25.304Z,78.00
2023-04-24T16:42:54.823Z,78.40
2023-04-24T16:45:22.799Z,78.80
2023-04-24T16:47:50.873Z,79.40
2023-04-24T16:50:18.958Z,79.80
2023-04-24T16:52:46.899Z,80.10
2023-04-24T16:55:16.394Z,80.10
2023-04-24T16:57:44.343Z,80.40
2023-04-24T17:00:13.657Z,80.60
2023-04-24T17:02:41.869Z,80.60
2023-04-24T17:05:10.211Z,81.20
2023-04-24T17:07:38.258Z,81.60
2023-04-24T17:10:09.078Z,81.90
2023-04-24T17:12:38.421Z,82.40
2023-04-24T17:15:07.598Z,82.90
2023-04-24T17:17:36.378Z,83.30
2023-04-24T17:20:14.888Z,83.50
2023-04-24T17:22:49.017Z,83.80
2023-04-24T17:25:17.011Z,84.30
2023-04-24T17:27:46.698Z,85.20
2023-04-24T17:30:15.807Z,85.50
2023-04-24T17:32:43.815Z,85.70
2023-04-24T17:35:12.478Z,86.10
2023-04-24T17:37:40.937Z,86.20
2023-04-24T17:40:10.085Z,86.30
2023-04-24T17:42:41.483Z,86.80
2023-04-24T17:45:12.408Z,87.50
2023-04-24T17:47:41.104Z,87.10
2023-04-24T17:50:09.822Z,87.90
2023-04-24T17:52:37.799Z,89.80
2023-04-24T17:55:06.581Z,90.20
2023-04-24T17:57:34.625Z,90.50
2023-04-24T18:00:03.000Z,91.30
2023-04-24T18:02:32.492Z,92.20
2023-04-24T18:05:00.727Z,93.40
2023-04-24T18:07:28.742Z,93.50
2023-04-24T18:09:56.835Z,94.00
2023-04-24T18:12:25.052Z,93.80
2023-04-24T18:14:59.755Z,94.10
2023-04-24T18:17:35.924Z,94.50
2023-04-24T18:20:04.180Z,94.90
2023-04-24T18:22:32.229Z,95.60
2023-04-24T18:25:00.309Z,96.00
2023-04-24T18:27:30.953Z,97.00
2023-04-24T18:29:59.114Z,97.50
2023-04-24T18:32:27.687Z,98.50
2023-04-24T18:34:57.079Z,98.00
2023-04-24T18:37:25.020Z,98.90
2023-04-24T18:39:54.300Z,99.70
2023-04-24T18:42:22.843Z,99.90
2023-04-24T18:44:51.310Z,99.90
2023-04-24T18:47:19.231Z,99.90
2023-04-24T18:49:47.212Z,99.90
2023-04-24T18:52:16.519Z,99.90
2023-04-24T18:54:44.505Z,99.90
2023-04-24T18:57:12.724Z,99.90
2023-04-24T18:59:40.685Z,99.90
2023-04-24T19:02:09.296Z,99.90
2023-04-24T19:04:37.243Z,99.90
2023-04-24T19:07:05.411Z,99.90
2023-04-24T19:09:34.831Z,99.90
2023-04-24T19:12:02.860Z,99.90
2023-04-24T19:14:30.895Z,99.90
2023-04-24T19:16:58.882Z,99.90
2023-04-24T19:19:28.996Z,99.90
2023-04-24T19:21:56.953Z,99.90
2023-04-24T19:24:26.056Z,99.90
2023-04-24T19:26:55.466Z,99.90
2023-04-24T19:29:23.458Z,99.90
2023-04-24T19:31:52.851Z,99.90
2023-04-24T19:34:20.933Z,99.90
2023-04-24T19:36:48.880Z,99.90
2023-04-24T19:39:17.314Z,99.90
2023-04-24T19:41:45.293Z,99.90
2023-04-24T19:44:15.699Z,99.90
2023-04-24T19:46:43.892Z,99.90
2023-04-24T19:49:12.606Z,99.90
2023-04-24T19:51:40.665Z,99.90
2023-04-24T19:54:08.963Z,99.90
2023-04-24T19:56:36.932Z,99.90
2023-04-24T19:59:04.922Z,99.90
2023-04-24T20:01:34.289Z,99.90
2023-04-24T20:04:02.710Z,99.90
2023-04-24T20:06:31.511Z,99.90
2023-04-24T20:09:00.256Z,99.90
2023-04-24T20:11:28.246Z,99.90
2023-04-24T20:13:56.538Z,99.90
2023-04-24T20:16:24.638Z,99.90
2023-04-24T20:18:54.073Z,99.90
2023-04-24T20:21:22.284Z,99.90
2023-04-24T20:23:52.029Z,99.90
2023-04-24T20:26:20.016Z,99.90
2023-04-24T20:28:48.271Z,99.90
2023-04-24T20:31:16.551Z,99.90
2023-04-24T20:33:45.548Z,99.90
2023-04-24T20:36:14.868Z,99.90
2023-04-24T20:38:42.836Z,99.90
2023-04-24T20:41:10.828Z,99.90
2023-04-24T20:43:38.921Z,99.90
2023-04-24T20:46:07.117Z,99.90
2023-04-24T20:48:35.175Z,99.90
2023-04-24T20:51:03.121Z,99.90
2023-04-24T20:53:32.538Z,99.90
2023-04-24T20:56:00.624Z,99.90
2023-04-24T20:58:28.681Z,99.90
2023-04-24T21:00:56.753Z,99.90
2023-04-24T21:03:24.810Z,99.90
2023-04-24T21:05:52.851Z,99.90
2023-04-24T21:08:20.891Z,99.90
2023-04-24T21:10:51.832Z,99.90
2023-04-24T21:13:19.825Z,99.90
2023-04-24T21:15:47.850Z,99.90
2023-04-24T21:18:16.208Z,99.90
2023-04-24T21:20:44.293Z,99.90
2023-04-24T21:23:12.277Z,99.90
2023-04-24T21:25:40.573Z,99.90
2023-04-24T21:28:10.146Z,99.90
2023-04-24T21:30:38.986Z,99.90
2023-04-24T21:33:07.179Z,99.90
2023-04-24T21:35:35.679Z,99.90
2023-04-24T21:38:03.793Z,99.90
2023-04-24T21:40:31.798Z,99.90
2023-04-24T21:42:59.851Z,99.90
2023-04-24T21:45:29.272Z,99.90
2023-04-24T21:47:58.511Z,99.90
2023-04-24T21:50:26.545Z,99.90
2023-04-24T21:52:54.513Z,99.90
2023-04-24T21:55:22.824Z,99.90
2023-04-24T21:57:50.833Z,99.90
2023-04-24T22:00:19.508Z,99.90
2023-04-24T22:02:49.064Z,99.90
2023-04-24T22:05:17.800Z,99.90
2023-04-24T22:07:49.792Z,99.90
2023-04-24T22:10:18.748Z,99.90
2023-04-24T22:12:46.740Z,99.90
2023-04-24T22:15:14.730Z,99.90
2023-04-24T22:17:43.554Z,99.90
2023-04-24T22:20:13.978Z,99.90
2023-04-24T22:22:41.954Z,99.90
2023-04-24T22:25:11.013Z,99.90
2023-04-24T22:27:39.102Z,99.90
2023-04-24T22:30:09.232Z,99.90
2023-04-24T22:32:37.817Z,99.90
2023-04-24T22:35:06.443Z,99.90
2023-04-24T22:37:35.926Z,99.90
2023-04-24T22:40:05.458Z,99.90
2023-04-24T22:42:33.570Z,99.90
2023-04-24T22:45:01.745Z,99.90
2023-04-24T22:47:30.679Z,99.90
2023-04-24T22:49:59.376Z,99.90
2023-04-24T22:52:28.885Z,99.90
2023-04-24T22:54:58.184Z,99.90
2023-04-24T22:57:26.157Z,99.90
2023-04-24T22:59:54.841Z,99.90
2023-04-24T23:02:23.138Z,99.90
2023-04-24T23:04:51.517Z,99.90
2023-04-24T23:07:19.589Z,99.90
2023-04-24T23:09:47.552Z,99.90
2023-04-24T23:12:16.867Z,99.90
2023-04-24T23:14:45.025Z,99.90
2023-04-24T23:17:14.443Z,99.90
2023-04-24T23:19:42.391Z,99.90
2023-04-24T23:22:10.487Z,99.90
2023-04-24T23:24:38.539Z,99.90
2023-04-24T23:27:06.626Z,99.90
2023-04-24T23:29:36.006Z,99.90
2023-04-24T23:32:03.997Z,99.90
2023-04-24T23:34:33.992Z,99.90
2023-04-24T23:37:02.378Z,99.90
2023-04-24T23:39:30.557Z,99.90
2023-04-24T23:41:59.895Z,99.90
2023-04-24T23:44:28.658Z,99.90
2023-04-24T23:46:58.125Z,99.90
2023-04-24T23:49:26.186Z,99.90
2023-04-24T23:51:54.582Z,99.90
2023-04-24T23:54:22.703Z,99.90
2023-04-24T23:56:51.182Z,99.90
2023-04-24T23:59:20.669Z,99.90
